Kumasi Airport

METAR DIAP TAF DIAP
28 °C
°C
/
°C
23m
年龄
00:52:44
LT
00:52
UTC
0 ft

1.000

2.000

3.000

4.000

5.000

SCT 1.200
VFR
<?= Yii::t('app', 'Wind direction') ?> <?= Yii::t('app', 'of'); ?>
170°
06:01
日出
94%
湿度
风切变
关闭/下雪
RWY可视范围
RWY状况
垂直能见度
最低能见度
CAVOK
趋势
纠正
特别报告
1013 hPa
QNH
METAR DIAP 310030Z 17006KT 9999 SCT012 28/27 Q1013 NOSIG
疏云,零星散落的云朵
2 kt
2 kt
00:00
VFR
5 kt
01:00
VFR
5 kt
02:00
VFR
5 kt
03:00
VFR
5 kt
04:00
VFR
5 kt
05:00
MVFR
5 kt
06:00
MVFR
5 kt
10 km+
能见度
天花板
6 kt
metar-taf.com/DGSI

Metar-Taf.com

视觉解码器

我们和第三方通过cookies跟踪您在我们网站上的互联网行为。如果你继续,我们认为你同意我们的饼干政策